sensor_id;sensor_type;location;lat;lon;timestamp;P1;durP1;ratioP1;P2;durP2;ratioP2
24857;SDS011;12935;50.782;6.074;2023-04-03T00:01:00;22.17;;;3.27;;
24857;SDS011;12935;50.782;6.074;2023-04-03T00:03:26;16.63;;;3.27;;
24857;SDS011;12935;50.782;6.074;2023-04-03T00:05:52;51.83;;;7.43;;
24857;SDS011;12935;50.782;6.074;2023-04-03T00:08:17;29.33;;;4.77;;
24857;SDS011;12935;50.782;6.074;2023-04-03T00:10:42;31.07;;;4.80;;
24857;SDS011;12935;50.782;6.074;2023-04-03T00:13:08;27.83;;;3.80;;
24857;SDS011;12935;50.782;6.074;2023-04-03T00:15:34;38.50;;;5.20;;
24857;SDS011;12935;50.782;6.074;2023-04-03T00:18:01;24.98;;;3.53;;
24857;SDS011;12935;50.782;6.074;2023-04-03T00:20:27;19.48;;;2.95;;
24857;SDS011;12935;50.782;6.074;2023-04-03T00:22:52;21.93;;;4.20;;
24857;SDS011;12935;50.782;6.074;2023-04-03T00:25:18;18.17;;;2.92;;
24857;SDS011;12935;50.782;6.074;2023-04-03T00:27:44;37.23;;;5.93;;
24857;SDS011;12935;50.782;6.074;2023-04-03T00:30:10;25.97;;;4.00;;
24857;SDS011;12935;50.782;6.074;2023-04-03T00:32:38;28.23;;;4.22;;
24857;SDS011;12935;50.782;6.074;2023-04-03T00:35:04;18.90;;;3.00;;
24857;SDS011;12935;50.782;6.074;2023-04-03T00:37:30;17.23;;;3.13;;
24857;SDS011;12935;50.782;6.074;2023-04-03T00:39:55;29.80;;;4.30;;
24857;SDS011;12935;50.782;6.074;2023-04-03T00:42:21;30.57;;;4.23;;
24857;SDS011;12935;50.782;6.074;2023-04-03T00:47:12;45.57;;;6.00;;
24857;SDS011;12935;50.782;6.074;2023-04-03T00:49:40;25.45;;;3.83;;
24857;SDS011;12935;50.782;6.074;2023-04-03T00:52:08;15.65;;;2.53;;
24857;SDS011;12935;50.782;6.074;2023-04-03T00:54:37;28.10;;;4.15;;
24857;SDS011;12935;50.782;6.074;2023-04-03T00:57:05;26.00;;;3.92;;
24857;SDS011;12935;50.782;6.074;2023-04-03T00:59:32;32.50;;;4.78;;
24857;SDS011;12935;50.782;6.074;2023-04-03T01:02:01;24.40;;;3.65;;
24857;SDS011;12935;50.782;6.074;2023-04-03T01:07:01;17.15;;;2.80;;
24857;SDS011;12935;50.782;6.074;2023-04-03T01:09:31;51.83;;;6.93;;
24857;SDS011;12935;50.782;6.074;2023-04-03T01:14:41;19.35;;;3.13;;
24857;SDS011;12935;50.782;6.074;2023-04-03T01:22:49;18.35;;;3.08;;
24857;SDS011;12935;50.782;6.074;2023-04-03T01:25:31;22.27;;;3.38;;
24857;SDS011;12935;50.782;6.074;2023-04-03T01:27:57;32.23;;;5.30;;
24857;SDS011;12935;50.782;6.074;2023-04-03T01:30:24;17.30;;;2.70;;
24857;SDS011;12935;50.782;6.074;2023-04-03T01:32:55;30.20;;;4.40;;
24857;SDS011;12935;50.782;6.074;2023-04-03T01:35:20;21.33;;;3.30;;
24857;SDS011;12935;50.782;6.074;2023-04-03T01:37:46;19.23;;;3.07;;
24857;SDS011;12935;50.782;6.074;2023-04-03T01:40:11;26.97;;;3.80;;
24857;SDS011;12935;50.782;6.074;2023-04-03T01:42:36;28.07;;;3.90;;
24857;SDS011;12935;50.782;6.074;2023-04-03T01:45:02;24.83;;;3.70;;
24857;SDS011;12935;50.782;6.074;2023-04-03T01:47:27;35.70;;;4.77;;
24857;SDS011;12935;50.782;6.074;2023-04-03T01:49:52;16.23;;;2.67;;
24857;SDS011;12935;50.782;6.074;2023-04-03T01:52:18;34.53;;;4.80;;
24857;SDS011;12935;50.782;6.074;2023-04-03T01:54:43;36.13;;;5.10;;
24857;SDS011;12935;50.782;6.074;2023-04-03T01:57:08;25.97;;;3.70;;
24857;SDS011;12935;50.782;6.074;2023-04-03T01:59:34;34.70;;;5.00;;
24857;SDS011;12935;50.782;6.074;2023-04-03T02:01:59;41.97;;;5.57;;
24857;SDS011;12935;50.782;6.074;2023-04-03T02:04:24;30.83;;;4.43;;
24857;SDS011;12935;50.782;6.074;2023-04-03T02:06:50;28.10;;;4.20;;
24857;SDS011;12935;50.782;6.074;2023-04-03T02:09:15;23.57;;;3.40;;
24857;SDS011;12935;50.782;6.074;2023-04-03T02:11:40;19.87;;;3.03;;
24857;SDS011;12935;50.782;6.074;2023-04-03T02:14:06;29.57;;;4.10;;
24857;SDS011;12935;50.782;6.074;2023-04-03T02:16:31;20.17;;;3.20;;
24857;SDS011;12935;50.782;6.074;2023-04-03T02:18:56;24.50;;;3.67;;
24857;SDS011;12935;50.782;6.074;2023-04-03T02:21:22;32.83;;;4.50;;
24857;SDS011;12935;50.782;6.074;2023-04-03T02:23:47;23.70;;;3.60;;
24857;SDS011;12935;50.782;6.074;2023-04-03T02:26:13;26.37;;;3.53;;
24857;SDS011;12935;50.782;6.074;2023-04-03T02:28:40;21.10;;;3.28;;
24857;SDS011;12935;50.782;6.074;2023-04-03T02:31:08;29.33;;;3.97;;
24857;SDS011;12935;50.782;6.074;2023-04-03T02:33:35;26.77;;;3.60;;
24857;SDS011;12935;50.782;6.074;2023-04-03T02:36:01;38.22;;;5.18;;
24857;SDS011;12935;50.782;6.074;2023-04-03T02:38:28;25.52;;;3.60;;
24857;SDS011;12935;50.782;6.074;2023-04-03T02:40:59;17.40;;;2.67;;
24857;SDS011;12935;50.782;6.074;2023-04-03T02:43:25;16.13;;;2.42;;
24857;SDS011;12935;50.782;6.074;2023-04-03T02:45:51;17.53;;;2.73;;
24857;SDS011;12935;50.782;6.074;2023-04-03T02:48:16;20.20;;;3.13;;
24857;SDS011;12935;50.782;6.074;2023-04-03T02:50:41;28.50;;;3.87;;
24857;SDS011;12935;50.782;6.074;2023-04-03T02:53:07;21.13;;;3.23;;
24857;SDS011;12935;50.782;6.074;2023-04-03T02:55:32;32.20;;;4.57;;
24857;SDS011;12935;50.782;6.074;2023-04-03T02:57:57;15.87;;;2.50;;
24857;SDS011;12935;50.782;6.074;2023-04-03T03:00:22;23.80;;;3.83;;
24857;SDS011;12935;50.782;6.074;2023-04-03T03:02:48;25.87;;;3.80;;
24857;SDS011;12935;50.782;6.074;2023-04-03T03:05:14;19.83;;;3.95;;
24857;SDS011;12935;50.782;6.074;2023-04-03T03:07:39;19.73;;;3.00;;
24857;SDS011;12935;50.782;6.074;2023-04-03T03:10:05;26.00;;;3.73;;
24857;SDS011;12935;50.782;6.074;2023-04-03T03:12:31;24.40;;;3.53;;
24857;SDS011;12935;50.782;6.074;2023-04-03T03:14:56;35.50;;;4.67;;
24857;SDS011;12935;50.782;6.074;2023-04-03T03:17:21;46.33;;;6.37;;
24857;SDS011;12935;50.782;6.074;2023-04-03T03:19:46;27.40;;;4.13;;
24857;SDS011;12935;50.782;6.074;2023-04-03T03:22:12;14.27;;;2.67;;
24857;SDS011;12935;50.782;6.074;2023-04-03T03:24:37;20.27;;;3.10;;
24857;SDS011;12935;50.782;6.074;2023-04-03T03:27:03;28.67;;;4.27;;
24857;SDS011;12935;50.782;6.074;2023-04-03T03:29:28;36.50;;;5.13;;
24857;SDS011;12935;50.782;6.074;2023-04-03T03:31:53;24.80;;;3.60;;
24857;SDS011;12935;50.782;6.074;2023-04-03T03:34:18;23.50;;;3.50;;
24857;SDS011;12935;50.782;6.074;2023-04-03T03:36:44;32.23;;;4.37;;
24857;SDS011;12935;50.782;6.074;2023-04-03T03:39:09;23.57;;;3.33;;
24857;SDS011;12935;50.782;6.074;2023-04-03T03:41:35;18.43;;;2.73;;
24857;SDS011;12935;50.782;6.074;2023-04-03T03:44:00;23.30;;;3.30;;
24857;SDS011;12935;50.782;6.074;2023-04-03T03:46:25;22.67;;;3.40;;
24857;SDS011;12935;50.782;6.074;2023-04-03T03:48:51;22.57;;;3.20;;
24857;SDS011;12935;50.782;6.074;2023-04-03T03:51:16;34.00;;;4.87;;
24857;SDS011;12935;50.782;6.074;2023-04-03T03:53:41;35.43;;;4.70;;
24857;SDS011;12935;50.782;6.074;2023-04-03T03:56:07;22.67;;;3.77;;
24857;SDS011;12935;50.782;6.074;2023-04-03T03:58:32;15.37;;;2.63;;
24857;SDS011;12935;50.782;6.074;2023-04-03T04:01:04;27.17;;;3.87;;
24857;SDS011;12935;50.782;6.074;2023-04-03T04:03:31;38.05;;;4.95;;
24857;SDS011;12935;50.782;6.074;2023-04-03T04:05:56;22.07;;;3.20;;
24857;SDS011;12935;50.782;6.074;2023-04-03T04:08:22;30.40;;;4.17;;
24857;SDS011;12935;50.782;6.074;2023-04-03T04:10:47;24.43;;;3.97;;
24857;SDS011;12935;50.782;6.074;2023-04-03T04:13:12;26.53;;;3.70;;
24857;SDS011;12935;50.782;6.074;2023-04-03T04:15:38;19.10;;;2.87;;
24857;SDS011;12935;50.782;6.074;2023-04-03T04:18:03;32.97;;;4.50;;
24857;SDS011;12935;50.782;6.074;2023-04-03T04:20:28;24.20;;;3.50;;
24857;SDS011;12935;50.782;6.074;2023-04-03T04:22:54;22.00;;;3.10;;
24857;SDS011;12935;50.782;6.074;2023-04-03T04:25:19;16.83;;;2.60;;
24857;SDS011;12935;50.782;6.074;2023-04-03T04:27:45;18.53;;;2.93;;
24857;SDS011;12935;50.782;6.074;2023-04-03T04:30:10;41.23;;;5.20;;
24857;SDS011;12935;50.782;6.074;2023-04-03T04:32:36;28.05;;;3.85;;
24857;SDS011;12935;50.782;6.074;2023-04-03T04:35:02;24.50;;;3.47;;
24857;SDS011;12935;50.782;6.074;2023-04-03T04:37:28;47.50;;;6.00;;
24857;SDS011;12935;50.782;6.074;2023-04-03T04:39:54;12.20;;;2.00;;
24857;SDS011;12935;50.782;6.074;2023-04-03T04:42:19;15.00;;;2.60;;
24857;SDS011;12935;50.782;6.074;2023-04-03T04:44:44;31.37;;;4.40;;
24857;SDS011;12935;50.782;6.074;2023-04-03T04:47:10;21.00;;;4.17;;
24857;SDS011;12935;50.782;6.074;2023-04-03T04:49:35;28.23;;;4.10;;
24857;SDS011;12935;50.782;6.074;2023-04-03T04:52:01;31.83;;;4.37;;
24857;SDS011;12935;50.782;6.074;2023-04-03T04:54:26;18.70;;;2.70;;
24857;SDS011;12935;50.782;6.074;2023-04-03T04:56:51;43.30;;;5.77;;
24857;SDS011;12935;50.782;6.074;2023-04-03T04:59:16;16.47;;;2.50;;
24857;SDS011;12935;50.782;6.074;2023-04-03T05:01:42;20.80;;;3.47;;
24857;SDS011;12935;50.782;6.074;2023-04-03T05:04:07;31.13;;;4.47;;
24857;SDS011;12935;50.782;6.074;2023-04-03T05:06:34;37.22;;;5.47;;
24857;SDS011;12935;50.782;6.074;2023-04-03T05:09:00;23.07;;;3.63;;
24857;SDS011;12935;50.782;6.074;2023-04-03T05:11:25;19.00;;;4.30;;
24857;SDS011;12935;50.782;6.074;2023-04-03T05:13:51;30.03;;;4.07;;
24857;SDS011;12935;50.782;6.074;2023-04-03T05:16:16;14.47;;;2.23;;
24857;SDS011;12935;50.782;6.074;2023-04-03T05:18:41;23.20;;;4.00;;
24857;SDS011;12935;50.782;6.074;2023-04-03T05:21:06;25.50;;;3.50;;
24857;SDS011;12935;50.782;6.074;2023-04-03T05:23:32;36.50;;;4.90;;
24857;SDS011;12935;50.782;6.074;2023-04-03T05:25:57;27.63;;;3.80;;
24857;SDS011;12935;50.782;6.074;2023-04-03T05:28:23;14.57;;;2.33;;
24857;SDS011;12935;50.782;6.074;2023-04-03T05:30:55;26.53;;;3.73;;
24857;SDS011;12935;50.782;6.074;2023-04-03T05:33:22;19.75;;;4.28;;
24857;SDS011;12935;50.782;6.074;2023-04-03T05:35:47;26.10;;;3.90;;
24857;SDS011;12935;50.782;6.074;2023-04-03T05:38:13;32.60;;;4.73;;
24857;SDS011;12935;50.782;6.074;2023-04-03T05:40:38;16.53;;;2.63;;
24857;SDS011;12935;50.782;6.074;2023-04-03T05:43:03;32.93;;;7.50;;
24857;SDS011;12935;50.782;6.074;2023-04-03T05:45:29;25.17;;;3.70;;
24857;SDS011;12935;50.782;6.074;2023-04-03T05:47:54;35.67;;;5.10;;
24857;SDS011;12935;50.782;6.074;2023-04-03T05:50:20;46.93;;;5.70;;
24857;SDS011;12935;50.782;6.074;2023-04-03T05:52:46;22.83;;;3.92;;
24857;SDS011;12935;50.782;6.074;2023-04-03T05:55:14;17.92;;;2.67;;
24857;SDS011;12935;50.782;6.074;2023-04-03T05:57:40;23.10;;;3.40;;
24857;SDS011;12935;50.782;6.074;2023-04-03T06:00:06;23.90;;;3.33;;
24857;SDS011;12935;50.782;6.074;2023-04-03T06:02:34;24.85;;;3.78;;
24857;SDS011;12935;50.782;6.074;2023-04-03T06:05:00;14.55;;;2.50;;
24857;SDS011;12935;50.782;6.074;2023-04-03T06:07:26;26.47;;;3.87;;
24857;SDS011;12935;50.782;6.074;2023-04-03T06:09:53;31.73;;;4.25;;
24857;SDS011;12935;50.782;6.074;2023-04-03T06:12:20;23.95;;;4.00;;
24857;SDS011;12935;50.782;6.074;2023-04-03T06:14:46;33.43;;;5.13;;
24857;SDS011;12935;50.782;6.074;2023-04-03T06:17:12;20.53;;;3.17;;
24857;SDS011;12935;50.782;6.074;2023-04-03T06:19:38;28.58;;;5.35;;
24857;SDS011;12935;50.782;6.074;2023-04-03T06:22:04;17.07;;;2.60;;
24857;SDS011;12935;50.782;6.074;2023-04-03T06:24:29;21.20;;;3.23;;
24857;SDS011;12935;50.782;6.074;2023-04-03T06:26:55;18.15;;;2.92;;
24857;SDS011;12935;50.782;6.074;2023-04-03T06:29:21;41.23;;;5.70;;
24857;SDS011;12935;50.782;6.074;2023-04-03T06:31:47;21.93;;;3.37;;
24857;SDS011;12935;50.782;6.074;2023-04-03T06:34:13;25.05;;;4.78;;
24857;SDS011;12935;50.782;6.074;2023-04-03T06:36:40;34.42;;;5.10;;
24857;SDS011;12935;50.782;6.074;2023-04-03T06:39:06;23.70;;;3.87;;
24857;SDS011;12935;50.782;6.074;2023-04-03T06:41:32;23.23;;;3.87;;
24857;SDS011;12935;50.782;6.074;2023-04-03T06:43:58;34.70;;;8.00;;
24857;SDS011;12935;50.782;6.074;2023-04-03T06:46:24;38.70;;;5.83;;
24857;SDS011;12935;50.782;6.074;2023-04-03T06:48:51;40.22;;;6.18;;
24857;SDS011;12935;50.782;6.074;2023-04-03T06:51:21;28.10;;;4.20;;
24857;SDS011;12935;50.782;6.074;2023-04-03T06:53:48;23.80;;;4.00;;
24857;SDS011;12935;50.782;6.074;2023-04-03T06:56:15;37.20;;;5.22;;
24857;SDS011;12935;50.782;6.074;2023-04-03T06:58:41;28.93;;;4.43;;
24857;SDS011;12935;50.782;6.074;2023-04-03T07:01:07;25.17;;;4.10;;
24857;SDS011;12935;50.782;6.074;2023-04-03T07:03:34;17.27;;;2.88;;
24857;SDS011;12935;50.782;6.074;2023-04-03T07:06:00;36.20;;;5.40;;
24857;SDS011;12935;50.782;6.074;2023-04-03T07:08:26;21.47;;;3.30;;
24857;SDS011;12935;50.782;6.074;2023-04-03T07:10:51;16.03;;;2.93;;
24857;SDS011;12935;50.782;6.074;2023-04-03T07:13:16;24.90;;;4.43;;
24857;SDS011;12935;50.782;6.074;2023-04-03T07:15:42;25.20;;;3.93;;
24857;SDS011;12935;50.782;6.074;2023-04-03T07:18:07;26.27;;;4.10;;
24857;SDS011;12935;50.782;6.074;2023-04-03T07:20:34;26.43;;;4.03;;
24857;SDS011;12935;50.782;6.074;2023-04-03T07:22:59;22.42;;;3.72;;
24857;SDS011;12935;50.782;6.074;2023-04-03T07:25:26;22.17;;;3.75;;
24857;SDS011;12935;50.782;6.074;2023-04-03T07:27:52;16.97;;;2.90;;
24857;SDS011;12935;50.782;6.074;2023-04-03T07:30:19;47.17;;;6.80;;
24857;SDS011;12935;50.782;6.074;2023-04-03T07:32:44;25.93;;;4.40;;
24857;SDS011;12935;50.782;6.074;2023-04-03T07:35:10;21.97;;;3.97;;
24857;SDS011;12935;50.782;6.074;2023-04-03T07:37:35;24.50;;;4.07;;
24857;SDS011;12935;50.782;6.074;2023-04-03T07:40:00;17.70;;;3.23;;
24857;SDS011;12935;50.782;6.074;2023-04-03T07:42:28;18.92;;;3.42;;
24857;SDS011;12935;50.782;6.074;2023-04-03T07:44:53;36.83;;;5.50;;
24857;SDS011;12935;50.782;6.074;2023-04-03T07:47:19;20.33;;;3.70;;
24857;SDS011;12935;50.782;6.074;2023-04-03T07:49:46;41.70;;;6.03;;
24857;SDS011;12935;50.782;6.074;2023-04-03T07:52:12;26.40;;;4.13;;
24857;SDS011;12935;50.782;6.074;2023-04-03T07:54:38;29.70;;;4.60;;
24857;SDS011;12935;50.782;6.074;2023-04-03T07:57:03;25.53;;;4.73;;
24857;SDS011;12935;50.782;6.074;2023-04-03T07:59:28;62.23;;;8.97;;
24857;SDS011;12935;50.782;6.074;2023-04-03T08:01:54;36.90;;;5.63;;
24857;SDS011;12935;50.782;6.074;2023-04-03T08:04:19;28.13;;;4.33;;
24857;SDS011;12935;50.782;6.074;2023-04-03T08:06:44;33.00;;;5.20;;
24857;SDS011;12935;50.782;6.074;2023-04-03T08:09:10;28.87;;;4.70;;
24857;SDS011;12935;50.782;6.074;2023-04-03T08:11:35;28.03;;;4.70;;
24857;SDS011;12935;50.782;6.074;2023-04-03T08:14:03;30.48;;;4.85;;
24857;SDS011;12935;50.782;6.074;2023-04-03T08:16:28;19.40;;;4.30;;
24857;SDS011;12935;50.782;6.074;2023-04-03T08:18:54;26.37;;;4.43;;
24857;SDS011;12935;50.782;6.074;2023-04-03T08:21:20;46.92;;;7.03;;
24857;SDS011;12935;50.782;6.074;2023-04-03T08:23:47;24.43;;;4.23;;
24857;SDS011;12935;50.782;6.074;2023-04-03T08:26:14;34.70;;;5.30;;
24857;SDS011;12935;50.782;6.074;2023-04-03T08:28:41;28.77;;;4.80;;
24857;SDS011;12935;50.782;6.074;2023-04-03T08:31:08;44.43;;;6.70;;
24857;SDS011;12935;50.782;6.074;2023-04-03T08:33:36;23.55;;;4.03;;
24857;SDS011;12935;50.782;6.074;2023-04-03T08:36:03;34.88;;;5.60;;
24857;SDS011;12935;50.782;6.074;2023-04-03T08:38:30;36.67;;;5.82;;
24857;SDS011;12935;50.782;6.074;2023-04-03T08:40:59;18.90;;;3.80;;
24857;SDS011;12935;50.782;6.074;2023-04-03T08:43:58;29.05;;;4.90;;
24857;SDS011;12935;50.782;6.074;2023-04-03T08:47:04;27.60;;;5.05;;
24857;SDS011;12935;50.782;6.074;2023-04-03T08:49:47;22.60;;;4.15;;
24857;SDS011;12935;50.782;6.074;2023-04-03T08:54:57;18.35;;;3.60;;
24857;SDS011;12935;50.782;6.074;2023-04-03T08:58:27;33.40;;;5.45;;
24857;SDS011;12935;50.782;6.074;2023-04-03T09:00:41;19.80;;;3.97;;
24857;SDS011;12935;50.782;6.074;2023-04-03T09:03:11;27.25;;;6.03;;
24857;SDS011;12935;50.782;6.074;2023-04-03T09:05:43;17.17;;;4.47;;
24857;SDS011;12935;50.782;6.074;2023-04-03T09:08:49;29.40;;;4.90;;
24857;SDS011;12935;50.782;6.074;2023-04-03T09:19:11;20.92;;;4.53;;
24857;SDS011;12935;50.782;6.074;2023-04-03T09:21:45;18.45;;;3.75;;
24857;SDS011;12935;50.782;6.074;2023-04-03T09:24:12;22.97;;;4.47;;
24857;SDS011;12935;50.782;6.074;2023-04-03T09:26:51;21.65;;;4.00;;
24857;SDS011;12935;50.782;6.074;2023-04-03T09:29:22;30.38;;;5.00;;
24857;SDS011;12935;50.782;6.074;2023-04-03T09:31:59;16.60;;;3.28;;
24857;SDS011;12935;50.782;6.074;2023-04-03T09:34:27;24.20;;;4.28;;
24857;SDS011;12935;50.782;6.074;2023-04-03T09:36:57;21.60;;;4.22;;
24857;SDS011;12935;50.782;6.074;2023-04-03T09:39:28;41.95;;;6.70;;
24857;SDS011;12935;50.782;6.074;2023-04-03T09:41:58;26.35;;;5.18;;
24857;SDS011;12935;50.782;6.074;2023-04-03T09:44:25;24.42;;;4.68;;
24857;SDS011;12935;50.782;6.074;2023-04-03T09:46:56;42.72;;;6.82;;
24857;SDS011;12935;50.782;6.074;2023-04-03T09:49:22;51.10;;;7.80;;
24857;SDS011;12935;50.782;6.074;2023-04-03T09:51:47;16.87;;;3.77;;
24857;SDS011;12935;50.782;6.074;2023-04-03T09:54:24;23.23;;;5.77;;
24857;SDS011;12935;50.782;6.074;2023-04-03T09:56:58;20.58;;;4.20;;
24857;SDS011;12935;50.782;6.074;2023-04-03T09:59:29;53.80;;;8.48;;
24857;SDS011;12935;50.782;6.074;2023-04-03T10:01:57;20.65;;;4.38;;
24857;SDS011;12935;50.782;6.074;2023-04-03T10:04:46;14.80;;;3.85;;
24857;SDS011;12935;50.782;6.074;2023-04-03T10:10:03;25.60;;;5.60;;
24857;SDS011;12935;50.782;6.074;2023-04-03T10:12:42;14.63;;;4.80;;
24857;SDS011;12935;50.782;6.074;2023-04-03T10:15:10;21.73;;;5.70;;
24857;SDS011;12935;50.782;6.074;2023-04-03T10:17:49;23.55;;;6.20;;
24857;SDS011;12935;50.782;6.074;2023-04-03T10:20:23;23.88;;;5.60;;
24857;SDS011;12935;50.782;6.074;2023-04-03T10:25:43;23.65;;;6.40;;
24857;SDS011;12935;50.782;6.074;2023-04-03T10:31:04;24.60;;;6.20;;
24857;SDS011;12935;50.782;6.074;2023-04-03T10:33:51;24.93;;;6.70;;
24857;SDS011;12935;50.782;6.074;2023-04-03T10:39:45;24.90;;;7.00;;
24857;SDS011;12935;50.782;6.074;2023-04-03T10:53:51;31.53;;;8.13;;
24857;SDS011;12935;50.782;6.074;2023-04-03T10:58:57;24.80;;;7.90;;
24857;SDS011;12935;50.782;6.074;2023-04-03T11:01:36;33.23;;;10.60;;
24857;SDS011;12935;50.782;6.074;2023-04-03T11:04:06;31.30;;;8.93;;
24857;SDS011;12935;50.782;6.074;2023-04-03T11:06:37;20.23;;;8.13;;
24857;SDS011;12935;50.782;6.074;2023-04-03T11:09:16;20.80;;;7.90;;
24857;SDS011;12935;50.782;6.074;2023-04-03T11:11:49;43.30;;;10.57;;
24857;SDS011;12935;50.782;6.074;2023-04-03T11:14:34;32.50;;;10.23;;
24857;SDS011;12935;50.782;6.074;2023-04-03T11:17:16;28.50;;;9.10;;
24857;SDS011;12935;50.782;6.074;2023-04-03T11:19:45;32.90;;;10.30;;
24857;SDS011;12935;50.782;6.074;2023-04-03T11:22:45;22.10;;;8.70;;
24857;SDS011;12935;50.782;6.074;2023-04-03T11:25:22;24.77;;;9.40;;
24857;SDS011;12935;50.782;6.074;2023-04-03T11:27:51;30.43;;;9.67;;
24857;SDS011;12935;50.782;6.074;2023-04-03T11:35:18;25.60;;;9.67;;
24857;SDS011;12935;50.782;6.074;2023-04-03T11:37:45;39.63;;;12.63;;
24857;SDS011;12935;50.782;6.074;2023-04-03T11:42:41;21.63;;;9.00;;
24857;SDS011;12935;50.782;6.074;2023-04-03T11:50:38;39.20;;;11.43;;
24857;SDS011;12935;50.782;6.074;2023-04-03T11:58:12;27.00;;;10.33;;
24857;SDS011;12935;50.782;6.074;2023-04-03T12:00:56;30.13;;;10.83;;
24857;SDS011;12935;50.782;6.074;2023-04-03T12:05:55;22.90;;;10.30;;
24857;SDS011;12935;50.782;6.074;2023-04-03T12:08:28;32.60;;;11.87;;
24857;SDS011;12935;50.782;6.074;2023-04-03T12:16:30;33.77;;;12.27;;
24857;SDS011;12935;50.782;6.074;2023-04-03T12:26:27;21.47;;;12.00;;
24857;SDS011;12935;50.782;6.074;2023-04-03T12:29:01;34.20;;;13.20;;
24857;SDS011;12935;50.782;6.074;2023-04-03T12:31:47;16.30;;;11.73;;
24857;SDS011;12935;50.782;6.074;2023-04-03T12:34:33;26.33;;;12.40;;
24857;SDS011;12935;50.782;6.074;2023-04-03T12:37:24;18.00;;;10.87;;
24857;SDS011;12935;50.782;6.074;2023-04-03T12:45:20;22.17;;;12.70;;
24857;SDS011;12935;50.782;6.074;2023-04-03T12:47:49;24.03;;;12.60;;
24857;SDS011;12935;50.782;6.074;2023-04-03T12:53:02;34.73;;;14.40;;
24857;SDS011;12935;50.782;6.074;2023-04-03T12:55:30;47.53;;;15.97;;
24857;SDS011;12935;50.782;6.074;2023-04-03T12:57:55;28.23;;;13.17;;
24857;SDS011;12935;50.782;6.074;2023-04-03T13:00:34;35.93;;;13.90;;
24857;SDS011;12935;50.782;6.074;2023-04-03T13:03:03;29.37;;;14.07;;
24857;SDS011;12935;50.782;6.074;2023-04-03T13:05:31;34.27;;;13.93;;
24857;SDS011;12935;50.782;6.074;2023-04-03T13:07:59;22.47;;;13.17;;
24857;SDS011;12935;50.782;6.074;2023-04-03T13:10:30;26.20;;;14.53;;
24857;SDS011;12935;50.782;6.074;2023-04-03T13:13:07;21.93;;;13.43;;
24857;SDS011;12935;50.782;6.074;2023-04-03T13:15:44;30.63;;;15.37;;
24857;SDS011;12935;50.782;6.074;2023-04-03T13:18:33;36.97;;;16.17;;
24857;SDS011;12935;50.782;6.074;2023-04-03T13:23:32;29.07;;;15.87;;
24857;SDS011;12935;50.782;6.074;2023-04-03T13:26:00;36.57;;;16.47;;
24857;SDS011;12935;50.782;6.074;2023-04-03T13:28:28;21.17;;;14.50;;
24857;SDS011;12935;50.782;6.074;2023-04-03T13:31:03;20.60;;;15.00;;
24857;SDS011;12935;50.782;6.074;2023-04-03T13:33:33;22.50;;;15.50;;
24857;SDS011;12935;50.782;6.074;2023-04-03T13:36:06;24.93;;;15.63;;
24857;SDS011;12935;50.782;6.074;2023-04-03T13:38:43;32.50;;;15.80;;
24857;SDS011;12935;50.782;6.074;2023-04-03T13:44:16;22.40;;;14.57;;
24857;SDS011;12935;50.782;6.074;2023-04-03T13:46:48;27.57;;;15.63;;
24857;SDS011;12935;50.782;6.074;2023-04-03T13:49:37;26.13;;;15.47;;
24857;SDS011;12935;50.782;6.074;2023-04-03T13:54:45;26.23;;;15.23;;
24857;SDS011;12935;50.782;6.074;2023-04-03T13:57:13;29.03;;;15.00;;
24857;SDS011;12935;50.782;6.074;2023-04-03T13:59:39;24.97;;;14.10;;
24857;SDS011;12935;50.782;6.074;2023-04-03T14:02:15;34.03;;;16.87;;
24857;SDS011;12935;50.782;6.074;2023-04-03T14:04:56;22.83;;;14.57;;
24857;SDS011;12935;50.782;6.074;2023-04-03T14:07:25;25.37;;;14.10;;
24857;SDS011;12935;50.782;6.074;2023-04-03T14:09:51;32.70;;;16.17;;
24857;SDS011;12935;50.782;6.074;2023-04-03T14:14:46;21.83;;;13.57;;
24857;SDS011;12935;50.782;6.074;2023-04-03T14:17:16;23.10;;;14.57;;
24857;SDS011;12935;50.782;6.074;2023-04-03T14:19:44;34.10;;;15.53;;
24857;SDS011;12935;50.782;6.074;2023-04-03T14:24:44;27.40;;;13.53;;
24857;SDS011;12935;50.782;6.074;2023-04-03T14:27:23;19.37;;;14.07;;
24857;SDS011;12935;50.782;6.074;2023-04-03T14:29:52;23.33;;;16.77;;
24857;SDS011;12935;50.782;6.074;2023-04-03T14:32:19;26.93;;;14.40;;
24857;SDS011;12935;50.782;6.074;2023-04-03T14:34:46;45.57;;;16.90;;
24857;SDS011;12935;50.782;6.074;2023-04-03T14:37:25;18.90;;;14.40;;
24857;SDS011;12935;50.782;6.074;2023-04-03T14:39:55;25.53;;;15.30;;
24857;SDS011;12935;50.782;6.074;2023-04-03T14:42:26;23.00;;;13.43;;
24857;SDS011;12935;50.782;6.074;2023-04-03T14:44:53;44.63;;;17.23;;
24857;SDS011;12935;50.782;6.074;2023-04-03T14:47:19;59.47;;;19.77;;
24857;SDS011;12935;50.782;6.074;2023-04-03T14:49:47;55.93;;;19.47;;
24857;SDS011;12935;50.782;6.074;2023-04-03T14:52:18;39.30;;;17.97;;
24857;SDS011;12935;50.782;6.074;2023-04-03T14:54:52;46.63;;;18.90;;
24857;SDS011;12935;50.782;6.074;2023-04-03T14:57:18;36.73;;;17.37;;
24857;SDS011;12935;50.782;6.074;2023-04-03T14:59:44;28.73;;;16.00;;
24857;SDS011;12935;50.782;6.074;2023-04-03T15:02:15;27.07;;;15.73;;
24857;SDS011;12935;50.782;6.074;2023-04-03T15:04:57;39.50;;;15.03;;
24857;SDS011;12935;50.782;6.074;2023-04-03T15:07:24;52.77;;;16.40;;
24857;SDS011;12935;50.782;6.074;2023-04-03T15:09:51;26.60;;;12.33;;
24857;SDS011;12935;50.782;6.074;2023-04-03T15:12:17;35.23;;;12.67;;
24857;SDS011;12935;50.782;6.074;2023-04-03T15:14:42;35.23;;;12.83;;
24857;SDS011;12935;50.782;6.074;2023-04-03T15:17:10;25.20;;;11.50;;
24857;SDS011;12935;50.782;6.074;2023-04-03T15:19:41;23.60;;;10.60;;
24857;SDS011;12935;50.782;6.074;2023-04-03T15:22:08;26.10;;;9.80;;
24857;SDS011;12935;50.782;6.074;2023-04-03T15:24:38;32.00;;;10.33;;
24857;SDS011;12935;50.782;6.074;2023-04-03T15:27:03;38.33;;;10.77;;
24857;SDS011;12935;50.782;6.074;2023-04-03T15:29:29;41.67;;;10.83;;
24857;SDS011;12935;50.782;6.074;2023-04-03T15:31:54;35.83;;;10.00;;
24857;SDS011;12935;50.782;6.074;2023-04-03T15:34:20;28.60;;;9.40;;
24857;SDS011;12935;50.782;6.074;2023-04-03T15:36:46;26.53;;;9.80;;
24857;SDS011;12935;50.782;6.074;2023-04-03T15:39:11;32.33;;;10.60;;
24857;SDS011;12935;50.782;6.074;2023-04-03T15:41:37;32.67;;;10.57;;
24857;SDS011;12935;50.782;6.074;2023-04-03T15:44:02;29.73;;;9.23;;
24857;SDS011;12935;50.782;6.074;2023-04-03T15:46:27;16.23;;;8.90;;
24857;SDS011;12935;50.782;6.074;2023-04-03T15:48:52;27.23;;;10.43;;
24857;SDS011;12935;50.782;6.074;2023-04-03T15:51:18;19.70;;;9.77;;
24857;SDS011;12935;50.782;6.074;2023-04-03T15:53:43;30.90;;;11.50;;
24857;SDS011;12935;50.782;6.074;2023-04-03T15:56:09;33.00;;;12.40;;
24857;SDS011;12935;50.782;6.074;2023-04-03T15:58:34;33.60;;;13.43;;
24857;SDS011;12935;50.782;6.074;2023-04-03T16:01:00;26.10;;;12.43;;
24857;SDS011;12935;50.782;6.074;2023-04-03T16:03:26;18.60;;;12.23;;
24857;SDS011;12935;50.782;6.074;2023-04-03T16:05:52;23.43;;;13.53;;
24857;SDS011;12935;50.782;6.074;2023-04-03T16:08:17;28.53;;;14.47;;
24857;SDS011;12935;50.782;6.074;2023-04-03T16:10:43;35.73;;;15.33;;
24857;SDS011;12935;50.782;6.074;2023-04-03T16:13:10;33.07;;;14.67;;
24857;SDS011;12935;50.782;6.074;2023-04-03T16:15:36;35.97;;;13.50;;
24857;SDS011;12935;50.782;6.074;2023-04-03T16:18:02;35.60;;;13.47;;
24857;SDS011;12935;50.782;6.074;2023-04-03T16:20:28;25.27;;;11.60;;
24857;SDS011;12935;50.782;6.074;2023-04-03T16:22:53;27.77;;;11.47;;